»·PEaware :: N513CG KMYF-KSNA

N513CG :: KMYF-KSNA

FLIGHT INFORMATION

Flight Status: Arrived
Operator: Privately registered:
United States
More flights under this callsign
Pilot: Christian M. (7618)
Aircraft: Unknown
(DA62)
More flights by this aircraft type
Origin: KMYF Montgomery
United States
Destination: KSNA John Wayne-Orange Co
United States
More flights between these airports :: More routes between these airports
Route: +OCN V23 SLI
File this flight plan on PilotEdge
Remarks:
Altitude:
(Current/Filed)
6,000ft
Speed:
(Current/Filed)
140kts
Departed: 13-Jun-18 08:54 AM
Arrived: 13-Jun-18 09:32 AM
Distance/Time
Traveled:
63nm/0:38
Distance/Time
To Go:
Arrived

Flight Plot

Page will automatically refresh every two minutes.


Map Options




Map Legend


Flown Route
Filed Route
Departure Airport
Arrival Airport
Navaid (VOR, NDB)
Fix

Horizontal Profiles

Position Reports

Time Latitude Longitude Heading Altitude Ground
Speed
13-Jun-18 08:27 32.814457 -117.142467 349 416ft 0kts
13-Jun-18 08:28 32.814457 -117.142467 349 416ft 0kts
13-Jun-18 08:29 32.814457 -117.142467 349 416ft 0kts
13-Jun-18 08:30 32.814457 -117.142467 349 416ft 0kts
13-Jun-18 08:31 32.814457 -117.142467 349 416ft 0kts
13-Jun-18 08:37 32.814457 -117.142467 349 416ft 0kts
13-Jun-18 08:38 32.814457 -117.142467 349 416ft 0kts
13-Jun-18 08:39 32.814457 -117.142467 349 416ft 0kts
13-Jun-18 08:40 32.814457 -117.142467 349 416ft 0kts
13-Jun-18 08:41 32.814457 -117.142467 349 416ft 0kts
13-Jun-18 08:42 32.814457 -117.142467 349 416ft 0kts
13-Jun-18 08:43 32.814457 -117.142467 349 416ft 0kts
13-Jun-18 08:44 32.814457 -117.142467 349 416ft 0kts
13-Jun-18 08:45 32.814457 -117.142467 349 416ft 0kts
13-Jun-18 08:46 32.814457 -117.142467 349 416ft 0kts
13-Jun-18 08:47 32.814457 -117.142467 349 416ft 0kts
13-Jun-18 08:48 32.814457 -117.142467 349 416ft 0kts
13-Jun-18 08:49 32.814548 -117.142449 28 416ft 0kts
13-Jun-18 08:50 32.814475 -117.141149 104 416ft 13kts
13-Jun-18 08:51 32.812954 -117.137154 110 416ft 13kts
13-Jun-18 08:52 32.811379 -117.133396 121 416ft 14kts
13-Jun-18 08:53 32.812362 -117.131272 17 416ft 16kts
13-Jun-18 08:54 32.819631 -117.151614 280 636ft 109kts
13-Jun-18 08:55 32.826134 -117.185306 282 1826ft 101kts
13-Jun-18 08:56 32.832829 -117.216921 280 2959ft 99kts
13-Jun-18 08:57 32.845351 -117.241087 338 3820ft 113kts
13-Jun-18 08:58 32.872978 -117.253794 338 4793ft 116kts
13-Jun-18 08:59 32.903572 -117.265596 337 5840ft 116kts
13-Jun-18 09:00 32.939841 -117.282800 338 5982ft 160kts
13-Jun-18 09:01 32.979162 -117.300189 337 5991ft 167kts
13-Jun-18 09:02 33.021924 -117.319463 340 5998ft 169kts
13-Jun-18 09:03 33.065492 -117.339440 338 5986ft 169kts
13-Jun-18 09:04 33.107713 -117.358381 338 5984ft 169kts
13-Jun-18 09:05 33.145602 -117.375285 338 5984ft 170kts
13-Jun-18 09:06 33.189404 -117.394810 339 5984ft 170kts
13-Jun-18 09:07 33.233770 -117.414611 339 5985ft 170kts
13-Jun-18 09:08 33.268527 -117.450109 315 5985ft 170kts
13-Jun-18 09:09 33.302007 -117.489103 315 5985ft 170kts
13-Jun-18 09:10 33.332698 -117.524921 315 5985ft 170kts
13-Jun-18 09:11 33.365891 -117.563660 315 5994ft 170kts
13-Jun-18 09:12 33.399581 -117.603019 315 5994ft 170kts
13-Jun-18 09:13 33.432083 -117.641021 315 5994ft 170kts
13-Jun-18 09:14 33.463594 -117.677913 313 5994ft 169kts
13-Jun-18 09:15 33.506421 -117.697201 1 5505ft 190kts
13-Jun-18 09:16 33.560519 -117.694006 1 4574ft 196kts
13-Jun-18 09:17 33.612257 -117.690367 1 3993ft 180kts
13-Jun-18 09:18 33.659761 -117.687165 1 3993ft 166kts
13-Jun-18 09:19 33.704853 -117.693365 351 3994ft 162kts
13-Jun-18 09:20 33.748837 -117.700385 351 3994ft 161kts
13-Jun-18 09:21 33.792604 -117.707522 351 3994ft 161kts
13-Jun-18 09:22 33.836985 -117.714886 351 3994ft 161kts
13-Jun-18 09:23 33.876686 -117.731040 290 3991ft 162kts
13-Jun-18 09:24 33.846814 -117.762339 202 3995ft 164kts
13-Jun-18 09:25 33.806349 -117.785958 208 3994ft 162kts
13-Jun-18 09:26 33.767198 -117.810794 209 3994ft 161kts
13-Jun-18 09:27 33.730044 -117.836204 235 3987ft 159kts
13-Jun-18 09:28 33.745175 -117.875672 312 3984ft 121kts
13-Jun-18 09:29 33.745890 -117.850714 129 2689ft 146kts
13-Jun-18 09:30 33.715112 -117.842760 205 1296ft 126kts
13-Jun-18 09:31 33.691017 -117.859133 209 293ft 87kts
13-Jun-18 09:32 33.675781 -117.868789 202 60ft 11kts
13-Jun-18 09:33 33.670148 -117.872195 181 60ft 19kts
13-Jun-18 09:34 33.669283 -117.871779 132 60ft 0kts
13-Jun-18 09:35 33.670081 -117.870003 38 60ft 21kts
13-Jun-18 09:36 33.672082 -117.867538 30 60ft 0kts

Navigation Log

Ident Type
Flight plan parsing failed, navigation log unavailable